Briceville, Tennessee
Current Conditions -  °F | °C
As of 9:53 AM on Friday 28 Nov 2014 (Local Time) from KOQT Reporting Station
Few Clouds Few Clouds  
Wind Chill: 31°   Ceiling: Unl
Heat Index: 31°   Visibility: 10mi
Dew Point: 20°   Wind: 0mph
Humidity: 64%   Direction: NA
Pressure: 30.46"   Gusts: NA
Location:  36.18°N, 84.18°W
Report Text: KOQT 281453Z AUTO 00000KT 10SM FEW110 M01/M07 A3046 RMK AO2 SLP331 T10061067 51014
Loading
Personal Weather Stations






























Interactive Weather Map New forecast layout! Learn more

10-Day Weather Forecast

Advertisements
Track Severe Weather on mobile